Time;durP1;ratioP1;P1;durP2;ratioP2;P2;SDS_P1;SDS_P2;PMS_P1;PMS_P2;Temp;Humidity;BMP_temperature;BMP_pressure;BME280_temperature;BME280_humidity;BME280_pressure;Samples;Min_cycle;Max_cycle;Signal;HPM_P1;HPM_P2
2023/05/01 00:02:22;;;;;;;10.05;7.50;;;;;;;;;;5092071;28;20044;-64
2023/05/01 00:04:50;;;;;;;11.20;7.65;;;;;;;;;;5093746;28;20512;-64
2023/05/01 00:07:18;;;;;;;11.20;7.72;;;;;;;;;;5094462;28;20044;-64
2023/05/01 00:09:45;;;;;;;12.75;8.00;;;;;;;;;;5095487;28;20036;-64
2023/05/01 00:12:13;;;;;;;11.45;8.30;;;;;;;;;;5095487;28;20036;-64
2023/05/01 00:14:41;;;;;;;11.38;8.02;;;;;;;;;;5095336;28;20439;-64
2023/05/01 00:17:08;;;;;;;11.18;8.20;;;;;;;;;;5095470;28;20044;-64
2023/05/01 00:19:36;;;;;;;11.98;8.43;;;;;;;;;;5095312;28;20054;-64
2023/05/01 00:22:03;;;;;;;10.43;8.15;;;;;;;;;;5095099;28;20058;-64
2023/05/01 00:24:31;;;;;;;13.10;8.35;;;;;;;;;;5095434;28;20440;-64
2023/05/01 00:26:58;;;;;;;11.05;8.55;;;;;;;;;;5095122;28;20070;-64
2023/05/01 00:29:26;;;;;;;9.25;7.80;;;;;;;;;;5095072;28;20052;-64
2023/05/01 00:31:54;;;;;;;8.20;7.25;;;;;;;;;;5094836;28;20402;-64
2023/05/01 00:34:23;;;;;;;18.17;8.20;;;;;;;;;;5093860;28;20036;-64
2023/05/01 00:36:51;;;;;;;11.52;7.68;;;;;;;;;;5093697;28;20093;-64
2023/05/01 00:39:18;;;;;;;14.98;7.72;;;;;;;;;;5093700;28;20518;-64
2023/05/01 00:41:46;;;;;;;11.77;8.02;;;;;;;;;;5093704;28;20039;-64
2023/05/01 00:44:13;;;;;;;11.07;7.75;;;;;;;;;;5094763;28;20496;-64
2023/05/01 00:46:42;;;;;;;9.30;7.93;;;;;;;;;;5093517;28;20070;-64
2023/05/01 00:49:10;;;;;;;9.50;7.70;;;;;;;;;;5094863;28;20050;-64
2023/05/01 00:51:37;;;;;;;8.98;7.85;;;;;;;;;;5093480;28;20044;-64
2023/05/01 00:54:05;;;;;;;9.95;8.23;;;;;;;;;;5076507;28;20573;-64
2023/05/01 00:56:32;;;;;;;11.02;8.15;;;;;;;;;;5093188;28;20040;-64
2023/05/01 00:59:00;;;;;;;10.65;7.53;;;;;;;;;;5076385;28;20048;-64
2023/05/01 01:01:28;;;;;;;10.25;7.82;;;;;;;;;;5093232;28;20050;-64
2023/05/01 01:03:56;;;;;;;9.88;8.05;;;;;;;;;;5076277;28;20071;-65
2023/05/01 01:06:24;;;;;;;9.35;8.32;;;;;;;;;;5076645;28;20051;-64
2023/05/01 01:09:07;;;;;;;9.77;8.10;;;;;;;;;;5076248;28;20064;-64
2023/05/01 01:11:57;;;;;;;11.75;8.35;;;;;;;;;;5094207;28;20048;-64
2023/05/01 01:14:28;;;;;;;9.93;8.05;;;;;;;;;;5075954;28;20087;-64
2023/05/01 01:17:02;;;;;;;10.18;8.27;;;;;;;;;;5076067;28;20044;-64
2023/05/01 01:19:48;;;;;;;9.68;8.25;;;;;;;;;;5092951;28;20052;-64
2023/05/01 01:22:24;;;;;;;11.35;8.65;;;;;;;;;;5094169;28;20082;-64
2023/05/01 01:24:58;;;;;;;12.10;8.68;;;;;;;;;;5094061;28;20470;-64
2023/05/01 01:27:37;;;;;;;13.23;9.32;;;;;;;;;;5094103;28;20067;-64
2023/05/01 01:30:24;;;;;;;11.00;8.70;;;;;;;;;;5093780;28;20048;-64
2023/05/01 01:33:11;;;;;;;12.82;8.48;;;;;;;;;;5092545;28;20072;-64
2023/05/01 01:35:42;;;;;;;12.60;9.05;;;;;;;;;;5092675;28;20135;-64
2023/05/01 01:38:16;;;;;;;12.55;8.48;;;;;;;;;;5093379;28;20059;-64
2023/05/01 01:40:55;;;;;;;11.65;8.95;;;;;;;;;;5075755;28;20105;-64
2023/05/01 01:43:23;;;;;;;10.93;8.60;;;;;;;;;;5075569;28;20048;-64
2023/05/01 01:45:57;;;;;;;12.95;9.07;;;;;;;;;;5092497;28;20040;-64
2023/05/01 01:48:29;;;;;;;12.30;8.93;;;;;;;;;;5092428;28;20135;-64
2023/05/01 01:50:58;;;;;;;14.23;8.82;;;;;;;;;;5093299;28;20040;-64
2023/05/01 01:53:28;;;;;;;10.73;8.85;;;;;;;;;;5075287;28;20048;-64
2023/05/01 01:55:56;;;;;;;11.27;8.95;;;;;;;;;;5075361;28;20406;-64
2023/05/01 01:58:25;;;;;;;12.50;8.82;;;;;;;;;;5075288;28;20066;-64
2023/05/01 02:00:55;;;;;;;11.55;9.20;;;;;;;;;;5075036;28;20379;-64
2023/05/01 02:03:23;;;;;;;13.23;8.73;;;;;;;;;;5091989;28;20505;-64
2023/05/01 02:05:52;;;;;;;10.52;8.60;;;;;;;;;;5092123;28;20036;-65
2023/05/01 02:08:20;;;;;;;12.02;8.38;;;;;;;;;;5075194;28;20036;-64
2023/05/01 02:10:48;;;;;;;11.75;9.18;;;;;;;;;;5092118;28;20036;-64
2023/05/01 02:13:16;;;;;;;11.00;8.45;;;;;;;;;;5091812;28;20096;-64
2023/05/01 02:15:45;;;;;;;11.98;9.00;;;;;;;;;;5091816;28;20086;-64
2023/05/01 02:18:13;;;;;;;11.63;8.70;;;;;;;;;;5075200;28;20048;-64
2023/05/01 02:20:41;;;;;;;11.00;8.88;;;;;;;;;;5091720;28;20497;-64
2023/05/01 02:23:10;;;;;;;10.88;8.38;;;;;;;;;;5058518;28;20051;-64
2023/05/01 02:25:38;;;;;;;13.73;9.60;;;;;;;;;;5091853;28;20046;-64
2023/05/01 02:28:12;;;;;;;13.27;9.27;;;;;;;;;;5091164;28;20043;-64
2023/05/01 02:30:40;;;;;;;12.07;9.20;;;;;;;;;;5091949;28;20044;-64
2023/05/01 02:33:08;;;;;;;11.52;8.88;;;;;;;;;;5091304;28;20044;-63
2023/05/01 02:35:48;;;;;;;12.30;9.00;;;;;;;;;;5092983;28;20040;-64
2023/05/01 02:38:18;;;;;;;11.70;8.82;;;;;;;;;;5074552;28;20052;-63
2023/05/01 02:40:53;;;;;;;10.98;8.68;;;;;;;;;;5091426;28;20452;-63
2023/05/01 02:43:20;;;;;;;;;;;;;;;;;;5092888;28;20048;-63
2023/05/01 02:45:49;;;;;;;12.02;9.68;;;;;;;;;;5091349;28;19951;-63
2023/05/01 02:48:19;;;;;;;13.77;8.57;;;;;;;;;;5091249;28;20571;-63
2023/05/01 02:50:48;;;;;;;11.27;9.07;;;;;;;;;;5091297;28;20526;-63
2023/05/01 02:53:16;;;;;;;12.55;9.15;;;;;;;;;;5092602;28;20044;-63
2023/05/01 02:55:48;;;;;;;13.07;9.45;;;;;;;;;;5091367;28;20094;-62
2023/05/01 02:58:20;;;;;;;10.77;8.70;;;;;;;;;;5091320;28;20044;-63
2023/05/01 03:00:50;;;;;;;10.13;8.35;;;;;;;;;;5074177;28;20040;-63
2023/05/01 03:03:19;;;;;;;11.85;8.90;;;;;;;;;;5074170;28;20135;-63
2023/05/01 03:05:47;;;;;;;10.55;8.40;;;;;;;;;;5092573;28;20044;-62
2023/05/01 03:08:14;;;;;;;10.88;8.60;;;;;;;;;;5091056;28;20131;-62
2023/05/01 03:10:43;;;;;;;10.75;8.50;;;;;;;;;;5092508;28;20036;-62
2023/05/01 03:13:11;;;;;;;8.80;7.88;;;;;;;;;;5074050;28;20052;-62
2023/05/01 03:15:38;;;;;;;11.02;8.35;;;;;;;;;;5074296;28;20498;-62
2023/05/01 03:18:06;;;;;;;11.43;8.80;;;;;;;;;;5074301;28;20512;-63
2023/05/01 03:20:33;;;;;;;11.75;8.68;;;;;;;;;;5090941;28;20042;-63
2023/05/01 03:23:02;;;;;;;13.13;8.68;;;;;;;;;;5074264;28;20040;-63
2023/05/01 03:25:31;;;;;;;10.98;8.98;;;;;;;;;;5090843;28;20084;-63
2023/05/01 03:27:58;;;;;;;13.60;8.50;;;;;;;;;;5092344;28;20405;-63
2023/05/01 03:30:26;;;;;;;15.63;9.00;;;;;;;;;;5091012;28;20371;-63
2023/05/01 03:32:54;;;;;;;11.48;9.10;;;;;;;;;;5091009;28;20040;-63
2023/05/01 03:35:28;;;;;;;11.07;8.65;;;;;;;;;;5091062;28;20101;-63
2023/05/01 03:37:56;;;;;;;12.00;8.35;;;;;;;;;;5075144;28;20106;-63
2023/05/01 03:40:43;;;;;;;10.95;8.70;;;;;;;;;;5084604;28;20529;-63
2023/05/01 03:43:30;;;;;;;10.82;8.35;;;;;;;;;;5096235;28;20421;-63
2023/05/01 03:46:01;;;;;;;11.60;8.68;;;;;;;;;;5094460;28;20043;-63
2023/05/01 03:48:29;;;;;;;9.82;7.97;;;;;;;;;;5083481;28;20040;-63
2023/05/01 03:50:57;;;;;;;11.82;8.10;;;;;;;;;;5095774;28;20382;-63
2023/05/01 03:53:25;;;;;;;10.75;7.88;;;;;;;;;;5094420;28;20401;-63
2023/05/01 03:55:52;;;;;;;10.70;7.75;;;;;;;;;;5094461;28;20066;-63
2023/05/01 03:58:21;;;;;;;10.00;8.07;;;;;;;;;;5094423;28;20119;-62
2023/05/01 04:00:49;;;;;;;10.60;7.35;;;;;;;;;;5094150;28;20048;-63
2023/05/01 04:03:17;;;;;;;12.10;8.23;;;;;;;;;;5094503;28;20495;-62
2023/05/01 04:05:48;;;;;;;10.30;7.55;;;;;;;;;;5094404;28;20048;-63
2023/05/01 04:08:16;;;;;;;10.10;7.80;;;;;;;;;;5077342;28;20040;-63
2023/05/01 04:10:43;;;;;;;10.85;7.28;;;;;;;;;;5094247;28;20036;-63
2023/05/01 04:13:11;;;;;;;9.02;7.88;;;;;;;;;;5093936;28;20048;-63
2023/05/01 04:15:39;;;;;;;9.68;7.45;;;;;;;;;;5094200;28;20075;-63
2023/05/01 04:18:06;;;;;;;10.00;7.18;;;;;;;;;;5095292;28;20047;-63
2023/05/01 04:20:34;;;;;;;10.15;7.40;;;;;;;;;;5076928;28;20079;-63
2023/05/01 04:23:02;;;;;;;10.60;7.10;;;;;;;;;;5093893;28;20044;-63
2023/05/01 04:25:29;;;;;;;9.70;7.85;;;;;;;;;;5093938;28;20524;-63
2023/05/01 04:28:04;;;;;;;10.20;7.53;;;;;;;;;;5077278;28;20398;-63
2023/05/01 04:30:32;;;;;;;12.55;7.93;;;;;;;;;;5093681;28;20044;-63
2023/05/01 04:33:00;;;;;;;9.70;7.60;;;;;;;;;;5077026;28;20036;-63
2023/05/01 04:35:29;;;;;;;11.77;7.80;;;;;;;;;;5088966;28;20518;-64
2023/05/01 04:37:56;;;;;;;10.20;7.93;;;;;;;;;;5077587;28;20051;-64
2023/05/01 04:40:24;;;;;;;10.27;8.07;;;;;;;;;;5088548;28;20041;-64
2023/05/01 04:42:51;;;;;;;10.65;7.53;;;;;;;;;;5088331;28;20094;-63
2023/05/01 04:45:19;;;;;;;11.57;7.88;;;;;;;;;;5071300;28;20210;-63
2023/05/01 04:47:46;;;;;;;10.30;8.38;;;;;;;;;;5054770;28;20048;-64
2023/05/01 04:50:14;;;;;;;8.98;7.78;;;;;;;;;;5070723;28;20044;-63
2023/05/01 04:52:41;;;;;;;11.70;8.35;;;;;;;;;;5088770;28;20066;-63
2023/05/01 04:55:09;;;;;;;10.82;8.93;;;;;;;;;;5090021;28;20040;-63
2023/05/01 04:57:45;;;;;;;12.10;8.77;;;;;;;;;;5056339;28;20044;-63
2023/05/01 05:00:12;;;;;;;11.52;8.43;;;;;;;;;;5061855;28;20052;-63
2023/05/01 05:02:50;;;;;;;10.30;7.88;;;;;;;;;;5056190;28;20502;-63
2023/05/01 05:05:17;;;;;;;11.35;7.70;;;;;;;;;;5056301;28;20451;-62
2023/05/01 05:07:45;;;;;;;10.82;7.90;;;;;;;;;;5089887;28;20040;-63
2023/05/01 05:10:31;;;;;;;;;;;;;;;;;;5088311;28;20401;-64
2023/05/01 05:13:18;;;;;;;10.82;7.63;;;;;;;;;;5074313;28;19928;-63
2023/05/01 05:15:52;;;;;;;10.68;7.40;;;;;;;;;;5076141;28;20093;-63
2023/05/01 05:18:23;;;;;;;10.75;7.35;;;;;;;;;;5081505;28;20036;-63
2023/05/01 05:20:50;;;;;;;10.95;8.48;;;;;;;;;;5082136;28;20036;-64
2023/05/01 05:23:18;;;;;;;11.55;7.63;;;;;;;;;;5084538;28;20032;-64
2023/05/01 05:25:46;;;;;;;12.05;7.53;;;;;;;;;;5070385;28;20375;-65
2023/05/01 05:28:13;;;;;;;10.73;6.85;;;;;;;;;;5073745;28;20521;-64
2023/05/01 05:30:42;;;;;;;7.15;5.80;;;;;;;;;;5066894;28;20379;-64
2023/05/01 05:33:14;;;;;;;8.27;6.63;;;;;;;;;;5073583;28;20047;-64
2023/05/01 05:35:42;;;;;;;7.63;6.15;;;;;;;;;;5092715;28;20079;-64
2023/05/01 05:38:09;;;;;;;9.35;6.18;;;;;;;;;;5075742;28;20067;-63
2023/05/01 05:40:39;;;;;;;8.57;6.55;;;;;;;;;;5092188;28;20048;-64
2023/05/01 05:43:07;;;;;;;9.27;5.90;;;;;;;;;;5075585;28;20040;-64
2023/05/01 05:45:35;;;;;;;10.10;5.85;;;;;;;;;;5059031;28;20040;-64
2023/05/01 05:48:03;;;;;;;8.57;5.93;;;;;;;;;;5092357;28;20052;-64
2023/05/01 05:50:33;;;;;;;6.93;5.32;;;;;;;;;;5092284;28;20060;-64
2023/05/01 05:53:00;;;;;;;7.00;5.40;;;;;;;;;;5092069;28;20501;-64
2023/05/01 05:55:28;;;;;;;6.22;4.63;;;;;;;;;;5091952;28;20036;-65
2023/05/01 05:58:01;;;;;;;6.32;5.00;;;;;;;;;;5085946;28;20079;-64
2023/05/01 06:00:29;;;;;;;8.02;5.10;;;;;;;;;;5043531;28;20045;-64
2023/05/01 06:03:01;;;;;;;6.05;4.80;;;;;;;;;;5054356;28;20170;-64
2023/05/01 06:05:31;;;;;;;6.25;5.40;;;;;;;;;;5084583;28;20079;-64
2023/05/01 06:07:59;;;;;;;6.22;5.07;;;;;;;;;;5051694;28;20471;-64
2023/05/01 06:10:26;;;;;;;9.48;5.38;;;;;;;;;;5052051;28;20037;-63
2023/05/01 06:12:54;;;;;;;5.25;4.65;;;;;;;;;;5052023;28;20383;-63
2023/05/01 06:15:38;;;;;;;6.15;4.97;;;;;;;;;;5051965;28;20120;-64
2023/05/01 06:18:06;;;;;;;8.32;5.03;;;;;;;;;;5051685;28;20419;-64
2023/05/01 06:20:34;;;;;;;5.88;4.50;;;;;;;;;;5051740;28;20072;-64
2023/05/01 06:23:02;;;;;;;5.18;4.60;;;;;;;;;;5051657;28;20045;-64
2023/05/01 06:25:40;;;;;;;5.13;4.43;;;;;;;;;;5085234;28;20123;-64
2023/05/01 06:28:07;;;;;;;5.50;4.80;;;;;;;;;;5051594;28;20132;-64
2023/05/01 06:30:35;;;;;;;6.38;4.38;;;;;;;;;;5051510;28;20041;-64
2023/05/01 06:33:03;;;;;;;9.13;4.70;;;;;;;;;;5051369;28;20091;-64
2023/05/01 06:35:31;;;;;;;5.65;4.38;;;;;;;;;;5051402;28;20041;-64
2023/05/01 06:37:59;;;;;;;6.88;4.20;;;;;;;;;;5051393;28;20091;-64
2023/05/01 06:40:26;;;;;;;6.80;4.03;;;;;;;;;;5051431;28;20049;-64
2023/05/01 06:42:54;;;;;;;5.40;4.00;;;;;;;;;;5051281;28;20045;-64
2023/05/01 06:45:26;;;;;;;5.22;3.85;;;;;;;;;;5051343;28;20051;-64
2023/05/01 06:47:53;;;;;;;5.68;3.55;;;;;;;;;;5051361;28;20506;-64
2023/05/01 06:50:21;;;;;;;5.18;3.20;;;;;;;;;;5051140;28;20520;-65
2023/05/01 06:52:48;;;;;;;5.50;3.60;;;;;;;;;;5051328;28;20048;-64
2023/05/01 06:55:16;;;;;;;6.95;3.83;;;;;;;;;;5051097;28;20034;-64
2023/05/01 06:57:44;;;;;;;4.07;3.30;;;;;;;;;;5069343;28;20044;-65
2023/05/01 07:00:12;;;;;;;3.80;3.22;;;;;;;;;;5070940;28;20048;-64
2023/05/01 07:02:40;;;;;;;4.30;3.13;;;;;;;;;;5072361;28;20075;-64
2023/05/01 07:05:07;;;;;;;5.75;3.30;;;;;;;;;;5071558;28;20036;-66
2023/05/01 07:07:35;;;;;;;3.00;2.53;;;;;;;;;;5072122;28;20411;-65
2023/05/01 07:10:05;;;;;;;3.08;2.70;;;;;;;;;;5071725;28;20044;-65
2023/05/01 07:12:33;;;;;;;4.00;2.80;;;;;;;;;;5072782;28;20051;-65
2023/05/01 07:15:00;;;;;;;4.95;2.95;;;;;;;;;;5076437;28;20037;-65
2023/05/01 07:17:31;;;;;;;8.38;2.70;;;;;;;;;;5092031;28;20041;-62
2023/05/01 07:20:00;;;;;;;3.35;2.70;;;;;;;;;;5076023;28;20044;-62
2023/05/01 07:22:28;;;;;;;3.72;2.53;;;;;;;;;;5076003;28;20041;-64
2023/05/01 07:24:55;;;;;;;4.47;2.53;;;;;;;;;;5076238;28;20115;-65
2023/05/01 07:27:23;;;;;;;3.75;2.60;;;;;;;;;;5075304;28;20044;-65
2023/05/01 07:29:51;;;;;;;4.38;2.63;;;;;;;;;;5076355;28;20445;-63
2023/05/01 07:32:18;;;;;;;2.85;2.40;;;;;;;;;;5076052;28;20032;-63
2023/05/01 07:34:46;;;;;;;3.63;2.60;;;;;;;;;;5076148;28;20066;-63
2023/05/01 07:37:13;;;;;;;4.85;3.70;;;;;;;;;;5076169;28;20041;-60
2023/05/01 07:39:41;;;;;;;4.65;3.50;;;;;;;;;;5074946;28;20513;-61
2023/05/01 07:42:08;;;;;;;5.40;3.97;;;;;;;;;;5076117;28;20037;-61
2023/05/01 07:44:36;;;;;;;5.53;3.20;;;;;;;;;;5075784;28;20490;-62
2023/05/01 07:47:05;;;;;;;4.28;2.60;;;;;;;;;;5075802;28;20486;-60
2023/05/01 07:49:37;;;;;;;6.10;2.97;;;;;;;;;;5073872;28;20048;-61
2023/05/01 07:52:07;;;;;;;4.97;3.30;;;;;;;;;;5075811;28;20045;-61
2023/05/01 07:54:35;;;;;;;3.10;2.50;;;;;;;;;;5076073;28;20128;-61
2023/05/01 07:57:03;;;;;;;3.45;2.30;;;;;;;;;;5075702;28;20044;-62
2023/05/01 07:59:30;;;;;;;6.07;3.30;;;;;;;;;;5091171;28;20056;-62
2023/05/01 08:01:58;;;;;;;3.78;3.00;;;;;;;;;;5094024;28;20048;-61
2023/05/01 08:04:27;;;;;;;4.22;2.60;;;;;;;;;;5077821;28;20040;-62
2023/05/01 08:06:54;;;;;;;3.95;3.05;;;;;;;;;;5094453;28;20038;-61
2023/05/01 08:09:22;;;;;;;4.57;3.38;;;;;;;;;;5095750;28;20032;-62
2023/05/01 08:11:50;;;;;;;4.32;2.92;;;;;;;;;;5095692;28;20105;-62
2023/05/01 08:14:18;;;;;;;3.53;3.00;;;;;;;;;;5095521;28;20464;-61
2023/05/01 08:16:45;;;;;;;3.88;2.75;;;;;;;;;;5095772;28;20036;-61
2023/05/01 08:19:13;;;;;;;3.72;2.80;;;;;;;;;;5095320;28;20413;-62
2023/05/01 08:21:40;;;;;;;3.88;2.70;;;;;;;;;;5095252;28;20043;-62
2023/05/01 08:24:09;;;;;;;3.65;2.90;;;;;;;;;;5094606;28;20040;-62
2023/05/01 08:26:37;;;;;;;4.35;2.75;;;;;;;;;;5095015;28;20040;-63
2023/05/01 08:29:04;;;;;;;4.47;2.72;;;;;;;;;;5095191;28;20044;-62
2023/05/01 08:31:34;;;;;;;4.38;3.40;;;;;;;;;;5094065;28;20061;-62
2023/05/01 08:34:02;;;;;;;7.18;3.78;;;;;;;;;;5095203;28;20040;-61
2023/05/01 08:36:30;;;;;;;6.53;3.97;;;;;;;;;;5095097;28;20064;-62
2023/05/01 08:38:58;;;;;;;6.72;3.47;;;;;;;;;;5094844;28;20444;-62
2023/05/01 08:41:27;;;;;;;6.75;3.78;;;;;;;;;;5094920;28;20119;-61
2023/05/01 08:44:00;;;;;;;7.55;4.40;;;;;;;;;;5094938;28;20379;-61
2023/05/01 08:46:37;;;;;;;6.90;4.35;;;;;;;;;;5094769;28;20040;-61
2023/05/01 08:49:05;;;;;;;10.20;4.65;;;;;;;;;;5094854;28;20054;-61
2023/05/01 08:51:34;;;;;;;7.95;4.38;;;;;;;;;;5094858;28;20076;-62
2023/05/01 08:54:03;;;;;;;7.25;4.35;;;;;;;;;;5094833;28;20044;-61
2023/05/01 08:56:32;;;;;;;8.52;4.50;;;;;;;;;;5095137;28;20064;-62
2023/05/01 08:59:02;;;;;;;6.38;4.75;;;;;;;;;;5094916;28;20035;-61
2023/05/01 09:01:31;;;;;;;9.60;6.07;;;;;;;;;;5090172;28;20053;-61
2023/05/01 09:04:02;;;;;;;14.80;9.55;;;;;;;;;;5089934;28;20048;-61
2023/05/01 09:06:31;;;;;;;9.55;6.32;;;;;;;;;;5074597;28;20437;-63
2023/05/01 09:08:59;;;;;;;5.95;4.47;;;;;;;;;;5074241;28;20079;-63
2023/05/01 09:11:27;;;;;;;12.15;6.85;;;;;;;;;;5074503;28;20036;-62
2023/05/01 09:14:01;;;;;;;7.55;4.57;;;;;;;;;;5074210;28;20040;-62
2023/05/01 09:16:29;;;;;;;9.30;6.57;;;;;;;;;;5074068;28;20044;-62
2023/05/01 09:18:58;;;;;;;7.43;5.00;;;;;;;;;;5089626;28;20456;-63
2023/05/01 09:21:28;;;;;;;9.68;5.60;;;;;;;;;;5073976;28;20045;-61
2023/05/01 09:23:55;;;;;;;7.97;4.82;;;;;;;;;;5073852;28;20441;-61
2023/05/01 09:26:23;;;;;;;7.55;4.90;;;;;;;;;;5073929;28;20056;-62
2023/05/01 09:28:56;;;;;;;5.85;4.43;;;;;;;;;;5089454;28;20068;-62
2023/05/01 09:31:27;;;;;;;6.18;4.50;;;;;;;;;;5072655;28;20056;-61
2023/05/01 09:33:57;;;;;;;8.43;4.45;;;;;;;;;;5073771;28;20513;-62
2023/05/01 09:36:25;;;;;;;6.07;4.03;;;;;;;;;;5073556;28;20051;-62
2023/05/01 09:38:53;;;;;;;5.70;4.05;;;;;;;;;;5073569;28;20058;-62
2023/05/01 09:41:21;;;;;;;6.57;4.47;;;;;;;;;;5073709;28;20118;-62
2023/05/01 09:43:49;;;;;;;5.88;4.75;;;;;;;;;;5088983;28;20047;-62
2023/05/01 09:46:17;;;;;;;6.32;4.18;;;;;;;;;;5073507;28;20564;-62
2023/05/01 09:49:02;;;;;;;7.63;6.82;;;;;;;;;;5089024;28;20108;-62
2023/05/01 09:51:31;;;;;;;8.43;5.65;;;;;;;;;;5073566;28;20116;-62
2023/05/01 09:54:02;;;;;;;8.38;7.40;;;;;;;;;;5073749;28;20572;-62
2023/05/01 09:56:31;;;;;;;6.07;4.55;;;;;;;;;;5073456;28;20048;-63
2023/05/01 09:59:22;;;;;;;5.78;3.90;;;;;;;;;;5073345;28;20106;-62
2023/05/01 10:01:50;;;;;;;7.93;4.40;;;;;;;;;;5090444;28;20557;-63
2023/05/01 10:04:17;;;;;;;5.05;4.18;;;;;;;;;;5093350;28;20048;-63
2023/05/01 10:06:45;;;;;;;8.15;4.50;;;;;;;;;;5093280;28;20539;-63
2023/05/01 10:09:26;;;;;;;6.90;4.07;;;;;;;;;;5093267;28;20478;-63
2023/05/01 10:11:56;;;;;;;7.10;4.50;;;;;;;;;;5093247;28;20111;-63
2023/05/01 10:14:25;;;;;;;6.40;4.28;;;;;;;;;;5093279;28;20050;-63
2023/05/01 10:16:53;;;;;;;8.10;4.32;;;;;;;;;;5093259;28;20089;-63
2023/05/01 10:19:21;;;;;;;8.68;3.78;;;;;;;;;;5093105;28;20054;-62
2023/05/01 10:21:49;;;;;;;5.57;4.15;;;;;;;;;;5093027;28;20036;-63
2023/05/01 10:24:17;;;;;;;6.22;3.60;;;;;;;;;;5092983;28;20047;-63
2023/05/01 10:26:48;;;;;;;5.15;3.00;;;;;;;;;;5093219;28;20035;-64
2023/05/01 10:29:16;;;;;;;5.47;3.40;;;;;;;;;;5092884;28;20421;-63
2023/05/01 10:31:43;;;;;;;6.68;3.50;;;;;;;;;;5092817;28;20060;-61
2023/05/01 10:34:15;;;;;;;6.78;3.80;;;;;;;;;;5092898;28;20078;-63
2023/05/01 10:36:45;;;;;;;5.78;3.05;;;;;;;;;;5092914;28;20040;-63
2023/05/01 10:39:45;;;;;;;7.18;4.15;;;;;;;;;;5075091;28;20040;-63
2023/05/01 10:42:13;;;;;;;4.70;3.13;;;;;;;;;;5048749;28;20123;-63
2023/05/01 10:44:41;;;;;;;4.90;3.05;;;;;;;;;;5092713;28;20111;-63
2023/05/01 10:47:26;;;;;;;7.30;3.70;;;;;;;;;;5092276;28;20050;-63
2023/05/01 10:50:07;;;;;;;10.73;3.15;;;;;;;;;;5092618;28;20098;-63
2023/05/01 10:52:53;;;;;;;9.73;3.75;;;;;;;;;;5092572;28;20064;-63
2023/05/01 10:55:37;;;;;;;5.85;3.78;;;;;;;;;;5092777;28;20497;-63
2023/05/01 10:58:05;;;;;;;6.80;4.45;;;;;;;;;;5092413;28;20455;-63
2023/05/01 11:00:33;;;;;;;12.20;8.13;;;;;;;;;;5092291;28;20094;-63
2023/05/01 11:03:20;;;;;;;9.43;5.25;;;;;;;;;;5092418;28;20047;-63
2023/05/01 11:06:03;;;;;;;5.78;3.42;;;;;;;;;;5091319;28;20071;-63
2023/05/01 11:08:33;;;;;;;4.15;3.10;;;;;;;;;;5092659;28;20119;-63
2023/05/01 11:11:20;;;;;;;4.20;3.20;;;;;;;;;;5092544;28;20040;-63
2023/05/01 11:14:17;;;;;;;6.43;3.53;;;;;;;;;;5092497;28;20090;-63
2023/05/01 11:16:45;;;;;;;8.00;4.20;;;;;;;;;;5075819;28;20102;-63
2023/05/01 11:19:22;;;;;;;6.20;3.30;;;;;;;;;;5092380;28;20058;-61
2023/05/01 11:21:50;;;;;;;6.18;3.47;;;;;;;;;;5092490;28;20516;-63
2023/05/01 11:24:18;;;;;;;5.57;3.03;;;;;;;;;;5091118;28;20036;-63
2023/05/01 11:26:46;;;;;;;7.38;3.15;;;;;;;;;;5092204;28;20040;-62
2023/05/01 11:29:13;;;;;;;4.30;3.05;;;;;;;;;;5092178;28;20039;-62
2023/05/01 11:31:41;;;;;;;5.28;3.20;;;;;;;;;;5092474;28;20055;-63
2023/05/01 11:34:08;;;;;;;4.65;3.05;;;;;;;;;;5092209;28;20048;-62
2023/05/01 11:36:49;;;;;;;5.32;3.05;;;;;;;;;;5092284;28;20047;-62
2023/05/01 11:39:17;;;;;;;9.52;3.17;;;;;;;;;;5092327;28;20044;-62
2023/05/01 11:41:44;;;;;;;8.02;3.20;;;;;;;;;;5092245;28;20042;-62
2023/05/01 11:44:13;;;;;;;5.53;2.67;;;;;;;;;;5092097;28;20510;-62
2023/05/01 11:46:40;;;;;;;3.35;2.90;;;;;;;;;;5092506;28;20044;-62
2023/05/01 11:49:08;;;;;;;4.40;2.70;;;;;;;;;;5092089;28;20510;-62
2023/05/01 11:51:36;;;;;;;6.60;3.05;;;;;;;;;;5092055;28;20036;-62
2023/05/01 11:54:12;;;;;;;6.95;3.78;;;;;;;;;;5090900;28;20501;-63
2023/05/01 11:56:42;;;;;;;5.88;2.85;;;;;;;;;;5092124;28;20444;-63
2023/05/01 11:59:15;;;;;;;3.88;2.92;;;;;;;;;;5092281;28;20385;-63
2023/05/01 12:01:43;;;;;;;4.53;3.30;;;;;;;;;;5095472;28;20048;-63
2023/05/01 12:04:12;;;;;;;5.75;3.10;;;;;;;;;;5095943;28;20071;-63
2023/05/01 12:06:42;;;;;;;4.97;2.88;;;;;;;;;;5095762;28;20067;-63
2023/05/01 12:09:21;;;;;;;5.72;2.88;;;;;;;;;;5094448;28;20047;-64
2023/05/01 12:11:50;;;;;;;5.63;3.20;;;;;;;;;;5077287;28;20086;-63
2023/05/01 12:14:20;;;;;;;8.20;3.00;;;;;;;;;;5095476;28;20386;-63
2023/05/01 12:16:48;;;;;;;3.83;2.95;;;;;;;;;;5095630;28;20047;-63
2023/05/01 12:19:16;;;;;;;6.45;3.58;;;;;;;;;;5095521;28;20123;-63
2023/05/01 12:21:44;;;;;;;6.00;3.80;;;;;;;;;;5095513;28;20048;-63
2023/05/01 12:24:13;;;;;;;5.32;3.80;;;;;;;;;;5095385;28;20127;-63
2023/05/01 12:26:41;;;;;;;4.32;2.85;;;;;;;;;;5094181;28;20619;-60
2023/05/01 12:29:10;;;;;;;6.63;2.90;;;;;;;;;;5095342;28;20036;-61
2023/05/01 12:31:45;;;;;;;6.45;3.17;;;;;;;;;;5095307;28;20051;-61
2023/05/01 12:34:13;;;;;;;6.28;3.30;;;;;;;;;;5095155;28;20402;-61
2023/05/01 12:36:40;;;;;;;5.07;3.20;;;;;;;;;;5094826;28;20044;-61
2023/05/01 12:39:09;;;;;;;5.15;3.40;;;;;;;;;;5094954;28;20043;-61
2023/05/01 12:41:38;;;;;;;5.90;3.65;;;;;;;;;;5095103;28;20033;-61
2023/05/01 12:44:35;;;;;;;5.50;3.13;;;;;;;;;;5094886;28;20036;-61
2023/05/01 12:47:05;;;;;;;5.85;3.17;;;;;;;;;;5078271;28;20056;-61
2023/05/01 12:49:32;;;;;;;4.40;3.30;;;;;;;;;;5094811;28;20565;-61
2023/05/01 12:52:00;;;;;;;4.82;3.00;;;;;;;;;;5094881;28;20436;-62
2023/05/01 12:54:29;;;;;;;6.93;3.20;;;;;;;;;;5094730;28;20043;-62
2023/05/01 12:57:09;;;;;;;4.43;3.20;;;;;;;;;;5094748;28;20052;-62
2023/05/01 12:59:38;;;;;;;4.72;3.05;;;;;;;;;;5093338;28;20131;-62
2023/05/01 13:02:07;;;;;;;4.68;3.42;;;;;;;;;;5094569;28;20059;-62
2023/05/01 13:04:35;;;;;;;4.72;3.38;;;;;;;;;;5094586;28;20457;-62
2023/05/01 13:07:09;;;;;;;4.80;3.13;;;;;;;;;;5094455;28;20040;-62
2023/05/01 13:09:38;;;;;;;4.10;3.15;;;;;;;;;;5076325;28;20051;-61
2023/05/01 13:12:06;;;;;;;6.18;3.40;;;;;;;;;;5093873;28;20087;-62
2023/05/01 13:14:41;;;;;;;7.20;4.82;;;;;;;;;;5094346;28;20044;-63
2023/05/01 13:17:11;;;;;;;4.20;3.00;;;;;;;;;;5090664;28;20075;-63
2023/05/01 13:19:39;;;;;;;4.35;2.95;;;;;;;;;;5093752;28;20036;-64
2023/05/01 13:22:07;;;;;;;4.50;3.20;;;;;;;;;;5092876;28;20039;-64
2023/05/01 13:24:43;;;;;;;7.55;4.28;;;;;;;;;;5085744;28;20445;-64
2023/05/01 13:27:12;;;;;;;6.40;4.45;;;;;;;;;;5072793;28;20045;-64
2023/05/01 13:29:44;;;;;;;5.40;3.40;;;;;;;;;;5073606;28;20178;-64
2023/05/01 13:32:12;;;;;;;5.07;2.90;;;;;;;;;;5074101;28;20044;-64
2023/05/01 13:34:41;;;;;;;5.40;3.58;;;;;;;;;;5079957;28;20055;-63
2023/05/01 13:37:13;;;;;;;5.28;2.92;;;;;;;;;;5079637;28;20502;-64
2023/05/01 13:39:41;;;;;;;7.97;3.78;;;;;;;;;;5072985;28;20472;-64
2023/05/01 13:42:11;;;;;;;5.95;3.15;;;;;;;;;;5071937;28;20056;-64
2023/05/01 13:44:49;;;;;;;5.50;4.15;;;;;;;;;;5073430;28;20424;-68
2023/05/01 13:47:17;;;;;;;7.22;3.20;;;;;;;;;;5085461;28;20040;-64
2023/05/01 13:49:45;;;;;;;6.00;4.53;;;;;;;;;;5072927;28;20037;-61
2023/05/01 13:52:15;;;;;;;7.82;3.40;;;;;;;;;;5084957;28;20044;-61
2023/05/01 13:54:43;;;;;;;5.43;3.05;;;;;;;;;;5077956;28;20115;-61
2023/05/01 13:57:11;;;;;;;6.80;3.17;;;;;;;;;;5076107;28;20098;-61
2023/05/01 13:59:42;;;;;;;3.53;2.80;;;;;;;;;;5075847;28;20559;-64
2023/05/01 14:02:20;;;;;;;3.63;3.00;;;;;;;;;;5072470;28;20059;-64
2023/05/01 14:04:48;;;;;;;6.13;3.10;;;;;;;;;;5072716;28;20047;-63
2023/05/01 14:07:20;;;;;;;8.10;3.08;;;;;;;;;;5072110;28;20036;-64
2023/05/01 14:10:08;;;;;;;4.60;3.03;;;;;;;;;;5072044;28;20051;-65
2023/05/01 14:12:36;;;;;;;8.80;4.53;;;;;;;;;;5073075;28;20043;-65
2023/05/01 14:15:03;;;;;;;5.53;3.17;;;;;;;;;;5073135;28;20044;-65
2023/05/01 14:17:33;;;;;;;5.18;3.00;;;;;;;;;;5073645;28;20044;-65
2023/05/01 14:20:01;;;;;;;5.90;3.30;;;;;;;;;;5102845;28;20043;-65
2023/05/01 14:22:29;;;;;;;5.15;3.08;;;;;;;;;;5103100;28;20115;-66
2023/05/01 14:24:57;;;;;;;7.57;3.20;;;;;;;;;;5098710;28;20386;-65
2023/05/01 14:27:25;;;;;;;4.88;2.88;;;;;;;;;;5078969;28;20466;-65
2023/05/01 14:29:54;;;;;;;4.60;2.63;;;;;;;;;;5076648;28;20111;-65
2023/05/01 14:32:22;;;;;;;5.45;3.20;;;;;;;;;;5072417;28;20498;-66
2023/05/01 14:34:49;;;;;;;6.85;3.10;;;;;;;;;;5038238;28;20128;-65
2023/05/01 14:37:17;;;;;;;5.50;3.10;;;;;;;;;;5054794;28;20063;-65
2023/05/01 14:39:44;;;;;;;6.45;2.85;;;;;;;;;;5073241;28;20093;-65
2023/05/01 14:42:12;;;;;;;6.10;3.47;;;;;;;;;;5073390;28;20045;-65
2023/05/01 14:44:42;;;;;;;5.60;3.20;;;;;;;;;;5078219;28;20031;-66
2023/05/01 14:47:09;;;;;;;4.40;3.13;;;;;;;;;;5078960;28;20043;-64
2023/05/01 14:49:37;;;;;;;3.30;2.70;;;;;;;;;;5072121;28;20044;-66
2023/05/01 14:52:04;;;;;;;5.68;3.35;;;;;;;;;;5054073;28;20052;-65
2023/05/01 14:54:43;;;;;;;3.83;2.50;;;;;;;;;;5071852;28;20037;-65
2023/05/01 14:57:11;;;;;;;3.83;2.95;;;;;;;;;;5071799;28;20064;-64